createdAt,value
2018-05-29T00:01:02.898Z,15.17
2018-05-29T00:03:31.053Z,15.60
2018-05-29T00:05:58.829Z,15.40
2018-05-29T00:08:29.848Z,15.63
2018-05-29T00:10:58.692Z,15.53
2018-05-29T00:13:27.776Z,14.93
2018-05-29T00:15:57.877Z,13.97
2018-05-29T00:18:27.951Z,15.27
2018-05-29T00:20:57.021Z,15.17
2018-05-29T00:23:25.661Z,15.33
2018-05-29T00:25:55.762Z,15.03
2018-05-29T00:28:26.029Z,14.77
2018-05-29T00:30:57.436Z,15.07
2018-05-29T00:33:35.119Z,15.43
2018-05-29T00:36:03.663Z,15.80
2018-05-29T00:38:32.029Z,15.57
2018-05-29T00:40:59.773Z,17.17
2018-05-29T00:43:27.395Z,17.03
2018-05-29T00:45:58.122Z,17.23
2018-05-29T00:48:37.535Z,17.50
2018-05-29T00:51:06.582Z,17.40
2018-05-29T00:53:34.252Z,18.60
2018-05-29T00:56:01.845Z,19.27
2018-05-29T00:58:36.275Z,19.97
2018-05-29T01:01:04.713Z,19.43
2018-05-29T01:03:33.508Z,19.07
2018-05-29T01:06:03.968Z,21.17
2018-05-29T01:08:32.587Z,20.27
2018-05-29T01:11:00.348Z,19.83
2018-05-29T01:13:29.865Z,19.03
2018-05-29T01:16:00.122Z,20.27
2018-05-29T01:18:31.142Z,19.03
2018-05-29T01:20:58.877Z,19.40
2018-05-29T01:23:27.509Z,19.53
2018-05-29T01:25:55.191Z,19.30
2018-05-29T01:28:27.297Z,20.20
2018-05-29T01:30:59.570Z,21.00
2018-05-29T01:33:29.392Z,20.10
2018-05-29T01:35:59.708Z,20.57
2018-05-29T01:38:34.347Z,20.57
2018-05-29T01:41:02.873Z,21.80
2018-05-29T01:43:31.219Z,20.33
2018-05-29T01:46:04.899Z,21.40
2018-05-29T01:48:32.568Z,21.40
2018-05-29T01:51:02.055Z,21.17
2018-05-29T01:53:32.138Z,21.73
2018-05-29T01:56:02.369Z,21.23
2018-05-29T01:58:32.895Z,21.03
2018-05-29T02:01:04.072Z,21.80
2018-05-29T02:03:33.661Z,22.37
2018-05-29T02:06:02.299Z,22.33
2018-05-29T02:08:41.411Z,22.23
2018-05-29T02:11:13.177Z,21.40
2018-05-29T02:13:42.566Z,22.03
2018-05-29T02:16:10.208Z,22.77
2018-05-29T02:18:38.034Z,21.80
2018-05-29T02:21:05.640Z,22.03
2018-05-29T02:23:33.266Z,23.63
2018-05-29T02:26:03.188Z,23.17
2018-05-29T02:28:31.685Z,22.07
2018-05-29T02:31:03.006Z,22.50
2018-05-29T02:33:31.420Z,22.27
2018-05-29T02:36:00.493Z,22.37
2018-05-29T02:38:31.143Z,21.43
2018-05-29T02:41:02.560Z,22.13
2018-05-29T02:43:31.496Z,22.00
2018-05-29T02:46:00.896Z,21.27
2018-05-29T02:48:29.521Z,20.53
2018-05-29T02:51:01.774Z,22.07
2018-05-29T02:53:29.450Z,21.33
2018-05-29T02:55:57.909Z,21.20
2018-05-29T02:58:25.575Z,20.83
2018-05-29T03:00:56.813Z,20.93
2018-05-29T03:03:30.561Z,20.83
2018-05-29T03:06:07.152Z,20.27
2018-05-29T03:08:35.617Z,19.53
2018-05-29T03:11:03.961Z,20.80
2018-05-29T03:13:34.159Z,20.90
2018-05-29T03:16:04.450Z,20.60
2018-05-29T03:18:32.077Z,21.97
2018-05-29T03:21:01.716Z,21.33
2018-05-29T03:23:32.002Z,22.40
2018-05-29T03:26:01.182Z,23.93
2018-05-29T03:28:33.229Z,22.17
2018-05-29T03:31:15.456Z,22.50
2018-05-29T03:33:43.854Z,23.47
2018-05-29T03:36:12.224Z,23.20
2018-05-29T03:38:39.870Z,23.23
2018-05-29T03:41:08.353Z,23.53
2018-05-29T03:43:36.701Z,22.27
2018-05-29T03:46:04.328Z,22.63
2018-05-29T03:54:51.571Z,23.77
2018-05-29T04:00:19.062Z,23.97
2018-05-29T04:03:04.669Z,22.87
2018-05-29T04:08:29.791Z,22.97
2018-05-29T04:10:57.355Z,22.83
2018-05-29T04:13:28.343Z,22.97
2018-05-29T04:15:58.857Z,23.00
2018-05-29T04:18:29.781Z,23.33
2018-05-29T04:21:03.347Z,22.50
2018-05-29T04:23:30.948Z,21.67
2018-05-29T04:25:59.577Z,20.83
2018-05-29T04:28:28.838Z,21.73
2018-05-29T04:31:01.043Z,22.47
2018-05-29T04:33:30.383Z,22.27
2018-05-29T04:35:57.971Z,20.93
2018-05-29T04:38:26.859Z,21.63
2018-05-29T04:44:20.240Z,23.67
2018-05-29T04:46:49.105Z,22.10
2018-05-29T04:49:18.037Z,21.83
2018-05-29T04:51:56.458Z,22.70
2018-05-29T04:54:27.225Z,21.73
2018-05-29T04:56:57.913Z,22.33
2018-05-29T04:59:31.986Z,22.27
2018-05-29T05:02:03.847Z,21.50
2018-05-29T05:04:37.915Z,21.37
2018-05-29T05:07:17.089Z,20.60
2018-05-29T05:09:45.624Z,20.03
2018-05-29T05:12:13.310Z,21.33
2018-05-29T05:14:40.929Z,20.87
2018-05-29T05:17:08.670Z,21.17
2018-05-29T05:19:36.292Z,21.33
2018-05-29T05:22:03.860Z,21.10
2018-05-29T05:24:31.440Z,21.20
2018-05-29T05:27:00.122Z,22.87
2018-05-29T05:29:31.203Z,21.23
2018-05-29T05:32:04.154Z,22.80
2018-05-29T05:34:31.878Z,20.57
2018-05-29T05:37:00.960Z,21.90
2018-05-29T05:39:32.700Z,21.17
2018-05-29T05:42:03.796Z,21.73
2018-05-29T05:44:32.660Z,20.77
2018-05-29T05:47:00.968Z,21.00
2018-05-29T05:49:30.662Z,21.20
2018-05-29T05:52:00.120Z,19.67
2018-05-29T05:54:29.528Z,17.97
2018-05-29T05:57:14.226Z,18.57
2018-05-29T05:59:43.531Z,17.50
2018-05-29T06:02:13.094Z,17.13
2018-05-29T06:04:41.478Z,17.20
2018-05-29T06:07:09.858Z,17.57
2018-05-29T06:12:33.714Z,17.77
2018-05-29T06:15:02.098Z,18.23
2018-05-29T06:17:29.728Z,18.97
2018-05-29T06:19:58.110Z,18.17
2018-05-29T06:22:25.749Z,17.50
2018-05-29T06:24:53.432Z,18.30
2018-05-29T06:27:21.795Z,16.70
2018-05-29T06:29:49.400Z,17.43
2018-05-29T06:32:17.029Z,17.20
2018-05-29T06:34:44.654Z,15.73
2018-05-29T06:37:12.635Z,15.70
2018-05-29T06:39:40.260Z,15.60
2018-05-29T06:42:08.631Z,14.57
2018-05-29T06:44:36.230Z,16.00
2018-05-29T06:47:03.873Z,15.63
2018-05-29T06:49:31.491Z,15.80
2018-05-29T06:51:59.079Z,16.50
2018-05-29T06:54:26.734Z,17.77
2018-05-29T06:56:55.104Z,17.07
2018-05-29T06:59:22.755Z,17.70
2018-05-29T07:01:50.385Z,16.80
2018-05-29T07:04:21.212Z,16.80
2018-05-29T07:06:48.857Z,16.23
2018-05-29T07:09:28.377Z,17.10
2018-05-29T07:11:55.987Z,18.70
2018-05-29T07:14:28.375Z,16.20
2018-05-29T07:17:05.144Z,16.67
2018-05-29T07:19:32.868Z,16.33
2018-05-29T07:22:02.132Z,17.17
2018-05-29T07:24:32.083Z,16.00
2018-05-29T07:27:03.221Z,17.57
2018-05-29T07:29:32.606Z,16.83
2018-05-29T07:32:01.110Z,16.73
2018-05-29T07:34:30.597Z,17.83
2018-05-29T07:37:01.811Z,16.77
2018-05-29T07:39:30.540Z,18.03
2018-05-29T07:42:00.476Z,17.10
2018-05-29T07:44:34.097Z,16.50
2018-05-29T07:47:04.253Z,16.23
2018-05-29T07:49:31.921Z,15.57
2018-05-29T07:52:00.699Z,15.43
2018-05-29T07:54:31.697Z,15.77
2018-05-29T07:57:01.084Z,15.80
2018-05-29T07:59:32.619Z,15.47
2018-05-29T08:02:04.513Z,16.07
2018-05-29T08:04:34.087Z,15.43
2018-05-29T08:07:05.936Z,16.13
2018-05-29T08:09:34.398Z,16.17
2018-05-29T08:12:03.047Z,15.83
2018-05-29T08:14:32.110Z,14.67
2018-05-29T08:17:03.647Z,15.60
2018-05-29T08:19:50.277Z,15.83
2018-05-29T08:22:41.632Z,16.60
2018-05-29T08:25:25.813Z,14.90
2018-05-29T08:27:57.489Z,16.10
2018-05-29T08:30:27.025Z,16.13
2018-05-29T08:33:01.429Z,16.80
2018-05-29T08:35:31.168Z,16.30
2018-05-29T08:38:00.043Z,16.43
2018-05-29T08:40:27.927Z,16.33
2018-05-29T08:43:02.428Z,15.40
2018-05-29T08:45:34.170Z,15.33
2018-05-29T08:48:02.917Z,15.77
2018-05-29T08:50:31.601Z,15.87
2018-05-29T08:53:00.526Z,15.97
2018-05-29T08:55:28.301Z,16.13
2018-05-29T08:57:58.665Z,16.23
2018-05-29T09:00:30.949Z,16.17
2018-05-29T09:03:00.042Z,16.53
2018-05-29T09:06:04.889Z,15.90
2018-05-29T09:08:34.127Z,16.37
2018-05-29T09:11:01.826Z,15.50
2018-05-29T09:13:29.441Z,16.40
2018-05-29T09:15:57.719Z,15.80
2018-05-29T09:18:26.330Z,16.47
2018-05-29T09:20:54.221Z,16.40
2018-05-29T09:23:21.828Z,15.67
2018-05-29T09:25:49.622Z,15.40
2018-05-29T09:28:17.260Z,16.27
2018-05-29T09:30:45.214Z,16.27
2018-05-29T09:33:13.356Z,15.97
2018-05-29T09:35:42.081Z,15.50
2018-05-29T09:38:26.294Z,15.40
2018-05-29T09:45:36.316Z,15.53
2018-05-29T09:48:05.604Z,15.70
2018-05-29T09:50:34.011Z,15.57
2018-05-29T09:53:03.221Z,14.80
2018-05-29T09:55:33.603Z,15.03
2018-05-29T09:58:03.048Z,15.20
2018-05-29T10:00:36.193Z,14.47
2018-05-29T10:03:03.863Z,14.57
2018-05-29T10:05:33.027Z,14.67
2018-05-29T10:08:02.993Z,14.60
2018-05-29T10:10:37.385Z,15.43
2018-05-29T10:13:04.960Z,15.50
2018-05-29T10:15:32.662Z,15.60
2018-05-29T10:18:02.019Z,14.80
2018-05-29T10:20:30.550Z,15.63
2018-05-29T10:23:07.602Z,14.83
2018-05-29T10:25:36.439Z,14.63
2018-05-29T10:28:05.070Z,15.40
2018-05-29T10:30:34.517Z,14.67
2018-05-29T10:33:09.444Z,15.27
2018-05-29T10:38:38.015Z,14.03
2018-05-29T10:41:05.743Z,14.87
2018-05-29T10:43:33.443Z,15.83
2018-05-29T10:46:02.272Z,15.70
2018-05-29T10:48:32.901Z,14.57
2018-05-29T10:51:01.516Z,13.30
2018-05-29T10:53:30.662Z,13.73
2018-05-29T10:55:59.449Z,13.30
2018-05-29T10:58:30.051Z,13.53
2018-05-29T11:01:02.273Z,12.60
2018-05-29T11:03:31.861Z,12.60
2018-05-29T11:08:32.094Z,13.50
2018-05-29T11:11:01.370Z,14.07
2018-05-29T11:13:30.749Z,14.17
2018-05-29T11:16:00.122Z,15.27
2018-05-29T11:18:30.160Z,14.87
2018-05-29T11:21:03.986Z,13.53
2018-05-29T11:23:33.906Z,14.20
2018-05-29T11:26:13.734Z,13.70
2018-05-29T11:28:41.953Z,13.67
2018-05-29T11:31:10.710Z,13.77
2018-05-29T11:33:39.987Z,14.27
2018-05-29T11:36:08.593Z,13.37
2018-05-29T11:38:38.406Z,13.47
2018-05-29T11:41:06.082Z,13.63
2018-05-29T11:43:34.494Z,12.90
2018-05-29T11:46:02.907Z,13.87
2018-05-29T11:48:30.547Z,13.30
2018-05-29T11:51:00.051Z,13.53
2018-05-29T11:53:30.212Z,13.60
2018-05-29T11:56:00.404Z,12.73
2018-05-29T11:58:30.859Z,13.47
2018-05-29T12:03:47.829Z,14.07
2018-05-29T12:06:16.319Z,12.93
2018-05-29T12:08:43.931Z,13.03
2018-05-29T12:11:12.416Z,12.53
2018-05-29T12:13:40.861Z,13.20
2018-05-29T12:16:08.791Z,13.30
2018-05-29T12:18:39.313Z,13.40
2018-05-29T12:21:07.731Z,13.10
2018-05-29T12:23:35.338Z,13.70
2018-05-29T12:26:04.203Z,13.53
2018-05-29T12:28:34.734Z,13.60
2018-05-29T12:31:03.628Z,13.23
2018-05-29T12:33:31.304Z,13.63
2018-05-29T12:36:01.016Z,13.53
2018-05-29T12:38:51.327Z,12.23
2018-05-29T12:41:42.465Z,13.80
2018-05-29T12:47:20.185Z,12.63
2018-05-29T12:52:44.101Z,12.77
2018-05-29T12:55:16.194Z,12.13
2018-05-29T12:57:43.827Z,12.50
2018-05-29T13:00:12.336Z,12.97
2018-05-29T13:02:40.958Z,12.27
2018-05-29T13:05:09.071Z,12.10
2018-05-29T13:07:37.536Z,11.20
2018-05-29T13:10:06.037Z,10.67
2018-05-29T13:12:34.881Z,11.10
2018-05-29T13:15:15.171Z,10.37
2018-05-29T13:23:47.307Z,12.10
2018-05-29T13:26:22.664Z,11.63
2018-05-29T13:28:51.542Z,11.47
2018-05-29T13:31:22.055Z,11.60
2018-05-29T13:33:50.733Z,11.10
2018-05-29T13:36:19.582Z,12.40
2018-05-29T13:38:47.211Z,12.27
2018-05-29T13:41:15.707Z,11.07
2018-05-29T13:43:44.996Z,11.90
2018-05-29T13:46:13.714Z,11.60
2018-05-29T13:48:42.299Z,11.80
2018-05-29T13:51:10.859Z,10.88
2018-05-29T13:53:39.216Z,10.88
2018-05-29T13:56:07.613Z,11.00
2018-05-29T13:58:36.061Z,10.90
2018-05-29T14:01:03.794Z,10.48
2018-05-29T14:03:33.061Z,9.60
2018-05-29T14:06:00.856Z,9.77
2018-05-29T14:08:31.027Z,10.27
2018-05-29T14:11:05.525Z,10.00
2018-05-29T14:13:49.346Z,10.82
2018-05-29T14:16:17.662Z,10.38
2018-05-29T14:18:45.288Z,10.02
2018-05-29T14:21:17.233Z,10.07
2018-05-29T14:23:44.823Z,6.87
2018-05-29T14:26:12.393Z,5.50
2018-05-29T14:28:40.035Z,5.65
2018-05-29T14:31:09.655Z,5.73
2018-05-29T14:33:37.284Z,5.10
2018-05-29T14:36:05.640Z,5.30
2018-05-29T14:38:39.605Z,4.80
2018-05-29T14:41:09.339Z,5.13
2018-05-29T14:43:36.971Z,5.10
2018-05-29T14:46:05.333Z,4.27
2018-05-29T14:48:32.981Z,5.03
2018-05-29T14:51:02.838Z,4.90
2018-05-29T14:53:31.277Z,4.73
2018-05-29T14:56:02.737Z,4.97
2018-05-29T14:58:34.005Z,5.57
2018-05-29T15:01:03.170Z,9.07
2018-05-29T15:03:35.141Z,6.40
2018-05-29T15:06:03.226Z,4.70
2018-05-29T15:08:31.128Z,4.90
2018-05-29T15:11:01.133Z,5.47
2018-05-29T15:13:33.602Z,6.37
2018-05-29T15:16:02.585Z,7.07
2018-05-29T15:18:32.049Z,7.30
2018-05-29T15:21:07.110Z,5.93
2018-05-29T15:23:35.524Z,6.53
2018-05-29T15:26:05.257Z,6.03
2018-05-29T15:28:33.523Z,6.70
2018-05-29T15:31:02.761Z,6.70
2018-05-29T15:33:31.417Z,7.00
2018-05-29T15:36:01.381Z,7.40
2018-05-29T15:38:30.674Z,7.70
2018-05-29T15:40:59.935Z,7.57
2018-05-29T15:43:28.899Z,7.33
2018-05-29T15:45:56.616Z,7.77
2018-05-29T15:51:07.667Z,7.60
2018-05-29T15:53:35.308Z,8.07
2018-05-29T15:56:03.699Z,7.87
2018-05-29T15:58:32.976Z,8.30
2018-05-29T16:01:00.886Z,8.37
2018-05-29T16:03:30.864Z,8.10
2018-05-29T16:05:58.605Z,8.73
2018-05-29T16:08:31.039Z,7.90
2018-05-29T16:11:00.028Z,8.27
2018-05-29T16:13:29.749Z,8.27
2018-05-29T16:15:58.484Z,8.00
2018-05-29T16:18:28.434Z,8.13
2018-05-29T16:21:00.079Z,7.93
2018-05-29T16:23:31.280Z,8.20
2018-05-29T16:26:02.659Z,8.67
2018-05-29T16:28:37.852Z,8.53
2018-05-29T16:31:05.678Z,8.60
2018-05-29T16:33:34.114Z,9.27
2018-05-29T16:36:03.416Z,8.23
2018-05-29T16:38:32.043Z,9.10
2018-05-29T16:41:00.441Z,9.60
2018-05-29T16:43:30.493Z,9.50
2018-05-29T16:45:59.462Z,8.53
2018-05-29T16:48:29.369Z,9.13
2018-05-29T16:50:58.781Z,9.17
2018-05-29T16:53:27.230Z,8.73
2018-05-29T16:55:57.104Z,8.67
2018-05-29T16:58:29.107Z,9.03
2018-05-29T17:01:10.668Z,8.97
2018-05-29T17:03:40.669Z,8.77
2018-05-29T17:06:08.377Z,9.20
2018-05-29T17:08:37.643Z,9.33
2018-05-29T17:11:05.297Z,9.70
2018-05-29T17:13:32.974Z,8.83
2018-05-29T17:16:05.211Z,8.87
2018-05-29T17:18:32.910Z,9.63
2018-05-29T17:21:01.402Z,9.13
2018-05-29T17:23:34.449Z,9.93
2018-05-29T17:26:02.774Z,9.37
2018-05-29T17:28:37.228Z,9.40
2018-05-29T17:31:06.482Z,9.40
2018-05-29T17:33:38.022Z,8.77
2018-05-29T17:36:06.545Z,8.93
2018-05-29T17:38:34.212Z,8.27
2018-05-29T17:41:02.566Z,9.37
2018-05-29T17:43:31.177Z,9.20
2018-05-29T17:45:59.147Z,9.50
2018-05-29T17:48:29.338Z,8.03
2018-05-29T17:51:00.691Z,8.03
2018-05-29T17:56:02.262Z,7.83
2018-05-29T17:58:32.122Z,7.80
2018-05-29T18:01:00.754Z,7.63
2018-05-29T18:03:30.601Z,9.00
2018-05-29T18:06:01.702Z,9.73
2018-05-29T18:08:30.118Z,7.83
2018-05-29T18:10:58.439Z,7.27
2018-05-29T18:13:26.242Z,7.70
2018-05-29T18:15:53.901Z,7.70
2018-05-29T18:18:21.528Z,8.10
2018-05-29T18:20:49.164Z,8.30
2018-05-29T18:23:18.253Z,8.40
2018-05-29T18:25:47.315Z,8.77
2018-05-29T18:28:14.911Z,8.20
2018-05-29T18:30:45.545Z,8.20
2018-05-29T18:33:24.749Z,8.53
2018-05-29T18:35:52.442Z,8.60
2018-05-29T18:38:23.937Z,8.13
2018-05-29T18:41:00.993Z,8.30
2018-05-29T18:43:30.002Z,8.57
2018-05-29T18:45:59.152Z,8.43
2018-05-29T18:48:28.769Z,8.70
2018-05-29T18:51:00.562Z,8.93
2018-05-29T18:53:30.211Z,9.37
2018-05-29T18:56:09.655Z,9.30
2018-05-29T18:58:38.930Z,8.83
2018-05-29T19:01:06.588Z,9.13
2018-05-29T19:03:38.115Z,8.90
2018-05-29T19:06:06.355Z,9.67
2018-05-29T19:08:36.826Z,9.47
2018-05-29T19:11:08.984Z,9.43
2018-05-29T19:13:45.175Z,9.77
2018-05-29T19:16:13.520Z,9.70
2018-05-29T19:18:42.036Z,10.00
2018-05-29T19:21:10.426Z,9.93
2018-05-29T19:23:38.230Z,9.77
2018-05-29T19:26:05.935Z,9.80
2018-05-29T19:28:33.616Z,9.53
2018-05-29T19:31:01.414Z,10.30
2018-05-29T19:33:31.491Z,10.10
2018-05-29T19:36:02.173Z,9.73
2018-05-29T19:38:34.574Z,10.37
2018-05-29T19:41:05.035Z,9.27
2018-05-29T19:43:33.437Z,10.63
2018-05-29T19:46:01.968Z,10.17
2018-05-29T19:48:31.281Z,10.40
2018-05-29T19:50:59.879Z,10.00
2018-05-29T19:53:29.686Z,10.57
2018-05-29T19:55:59.186Z,10.93
2018-05-29T19:58:28.889Z,11.17
2018-05-29T20:00:57.712Z,11.43
2018-05-29T20:03:30.300Z,11.00
2018-05-29T20:05:58.009Z,11.43
2018-05-29T20:08:30.500Z,11.83
2018-05-29T20:11:01.259Z,11.83
2018-05-29T20:13:35.391Z,11.60
2018-05-29T20:16:03.262Z,11.10
2018-05-29T20:18:32.150Z,11.83
2018-05-29T20:21:00.637Z,10.73
2018-05-29T20:23:30.060Z,10.53
2018-05-29T20:26:00.350Z,10.67
2018-05-29T20:28:29.041Z,11.00
2018-05-29T20:30:58.456Z,10.73
2018-05-29T20:33:28.315Z,10.67
2018-05-29T20:35:57.919Z,10.87
2018-05-29T20:38:32.538Z,10.43
2018-05-29T20:41:00.296Z,10.57
2018-05-29T20:43:31.628Z,10.90
2018-05-29T20:45:59.857Z,10.97
2018-05-29T20:48:28.849Z,10.70
2018-05-29T20:50:57.269Z,93.07
2018-05-29T20:53:34.474Z,17.93
2018-05-29T20:56:03.461Z,14.97
2018-05-29T20:58:31.138Z,8.50
2018-05-29T21:01:00.022Z,8.70
2018-05-29T21:03:30.934Z,8.20
2018-05-29T21:06:01.094Z,8.40
2018-05-29T21:08:28.874Z,8.67
2018-05-29T21:11:00.727Z,9.03
2018-05-29T21:13:32.723Z,9.30
2018-05-29T21:16:03.951Z,9.37
2018-05-29T21:18:34.157Z,9.50
2018-05-29T21:21:01.865Z,9.83
2018-05-29T21:23:30.565Z,9.13
2018-05-29T21:26:02.158Z,9.40
2018-05-29T21:28:31.390Z,9.33
2018-05-29T21:31:00.161Z,9.47
2018-05-29T21:33:27.836Z,9.63
2018-05-29T21:35:58.534Z,10.10
2018-05-29T21:38:29.928Z,10.40
2018-05-29T21:41:03.031Z,9.83
2018-05-29T21:43:31.295Z,10.43
2018-05-29T21:46:00.824Z,27.17
2018-05-29T21:48:39.893Z,34.37
2018-05-29T21:51:07.510Z,18.10
2018-05-29T21:53:35.247Z,11.50
2018-05-29T21:56:03.033Z,10.50
2018-05-29T21:58:31.450Z,11.07
2018-05-29T22:01:00.410Z,11.03
2018-05-29T22:03:30.565Z,11.60
2018-05-29T22:05:59.222Z,11.00
2018-05-29T22:08:32.241Z,11.57
2018-05-29T22:11:00.641Z,13.20
2018-05-29T22:13:28.915Z,12.53
2018-05-29T22:16:00.284Z,12.20
2018-05-29T22:18:28.865Z,12.30
2018-05-29T22:21:02.362Z,13.07
2018-05-29T22:23:31.479Z,12.43
2018-05-29T22:26:02.380Z,13.57
2018-05-29T22:28:31.344Z,13.73
2018-05-29T22:31:00.271Z,12.73
2018-05-29T22:33:31.288Z,12.00
2018-05-29T22:35:59.633Z,13.03
2018-05-29T22:38:29.833Z,12.63
2018-05-29T22:41:03.707Z,11.63
2018-05-29T22:43:31.345Z,12.03
2018-05-29T22:46:02.646Z,12.50
2018-05-29T22:48:31.644Z,11.97
2018-05-29T22:51:00.025Z,12.57
2018-05-29T22:53:27.671Z,13.03
2018-05-29T22:55:57.201Z,11.63
2018-05-29T22:58:26.411Z,11.70
2018-05-29T23:00:54.239Z,12.50
2018-05-29T23:03:21.805Z,12.37
2018-05-29T23:05:49.520Z,13.07
2018-05-29T23:08:17.915Z,12.33
2018-05-29T23:10:45.904Z,12.00
2018-05-29T23:13:13.568Z,12.90
2018-05-29T23:15:42.558Z,11.40
2018-05-29T23:18:13.758Z,12.03
2018-05-29T23:20:45.359Z,12.33
2018-05-29T23:23:15.109Z,11.57
2018-05-29T23:25:43.565Z,12.37
2018-05-29T23:28:11.180Z,11.73
2018-05-29T23:30:38.937Z,12.43
2018-05-29T23:33:06.711Z,12.07
2018-05-29T23:35:35.100Z,11.77
2018-05-29T23:38:04.893Z,11.93
2018-05-29T23:40:33.027Z,12.17
2018-05-29T23:43:01.701Z,12.63
2018-05-29T23:48:01.890Z,12.17
2018-05-29T23:50:32.259Z,11.93
2018-05-29T23:53:01.306Z,12.70
2018-05-29T23:55:29.186Z,12.00
2018-05-29T23:58:06.665Z,13.10
